createdAt,value
2019-01-06T00:00:38.030Z,1002.76
2019-01-06T00:01:38.001Z,1002.72
2019-01-06T00:02:38.014Z,1002.76
2019-01-06T00:03:38.018Z,1002.71
2019-01-06T00:04:37.968Z,1002.75
2019-01-06T00:05:37.948Z,1002.79
2019-01-06T00:06:38.163Z,1002.76
2019-01-06T00:07:37.926Z,1002.79
2019-01-06T00:08:37.938Z,1002.78
2019-01-06T00:09:37.909Z,1002.75
2019-01-06T00:10:37.904Z,1002.77
2019-01-06T00:11:37.900Z,1002.72
2019-01-06T00:12:37.878Z,1002.67
2019-01-06T00:13:37.879Z,1002.66
2019-01-06T00:14:37.889Z,1002.67
2019-01-06T00:15:37.874Z,1002.65
2019-01-06T00:16:37.856Z,1002.59
2019-01-06T00:17:37.897Z,1002.64
2019-01-06T00:18:37.870Z,1002.62
2019-01-06T00:19:37.826Z,1002.69
2019-01-06T00:20:37.796Z,1002.67
2019-01-06T00:21:37.779Z,1002.63
2019-01-06T00:22:37.818Z,1002.61
2019-01-06T00:23:37.759Z,1002.66
2019-01-06T00:24:37.811Z,1002.61
2019-01-06T00:25:37.743Z,1002.59
2019-01-06T00:26:37.739Z,1002.62
2019-01-06T00:27:37.727Z,1002.63
2019-01-06T00:28:37.707Z,1002.60
2019-01-06T00:29:37.694Z,1002.61
2019-01-06T00:30:37.706Z,1002.62
2019-01-06T00:31:37.698Z,1002.64
2019-01-06T00:32:37.693Z,1002.60
2019-01-06T00:33:37.658Z,1002.63
2019-01-06T00:34:37.652Z,1002.62
2019-01-06T00:35:37.634Z,1002.66
2019-01-06T00:36:37.665Z,1002.63
2019-01-06T00:37:37.609Z,1002.67
2019-01-06T00:38:37.627Z,1002.66
2019-01-06T00:39:37.604Z,1002.61
2019-01-06T00:40:37.583Z,1002.70
2019-01-06T00:41:37.580Z,1002.72
2019-01-06T00:42:37.575Z,1002.73
2019-01-06T00:43:37.558Z,1002.77
2019-01-06T00:44:37.554Z,1002.78
2019-01-06T00:45:37.523Z,1002.79
2019-01-06T00:46:37.512Z,1002.78
2019-01-06T00:47:37.523Z,1002.76
2019-01-06T00:48:37.490Z,1002.79
2019-01-06T00:49:37.497Z,1002.77
2019-01-06T00:50:37.823Z,1002.81
2019-01-06T00:51:37.482Z,1002.81
2019-01-06T00:52:37.465Z,1002.77
2019-01-06T00:53:37.448Z,1002.85
2019-01-06T00:54:37.433Z,1002.81
2019-01-06T00:55:37.415Z,1002.82
2019-01-06T00:56:37.429Z,1002.80
2019-01-06T00:57:37.418Z,1002.81
2019-01-06T00:58:37.381Z,1002.78
2019-01-06T00:59:37.377Z,1002.78
2019-01-06T01:00:37.463Z,1002.81
2019-01-06T01:01:37.373Z,1002.79
2019-01-06T01:02:38.582Z,1002.79
2019-01-06T01:03:37.328Z,1002.81
2019-01-06T01:04:37.318Z,1002.87
2019-01-06T01:05:37.328Z,1002.80
2019-01-06T01:06:37.322Z,1002.82
2019-01-06T01:07:37.320Z,1002.76
2019-01-06T01:08:37.294Z,1002.77
2019-01-06T01:09:37.315Z,1002.79
2019-01-06T01:10:37.309Z,1002.76
2019-01-06T01:11:37.254Z,1002.78
2019-01-06T01:12:37.253Z,1002.77
2019-01-06T01:13:37.223Z,1002.75
2019-01-06T01:14:37.225Z,1002.75
2019-01-06T01:15:37.264Z,1002.76
2019-01-06T01:16:37.191Z,1002.76
2019-01-06T01:17:37.196Z,1002.75
2019-01-06T01:18:37.183Z,1002.74
2019-01-06T01:19:37.186Z,1002.76
2019-01-06T01:20:37.167Z,1002.78
2019-01-06T01:21:37.145Z,1002.75
2019-01-06T01:22:37.158Z,1002.82
2019-01-06T01:23:37.130Z,1002.84
2019-01-06T01:24:37.135Z,1002.84
2019-01-06T01:25:37.134Z,1002.81
2019-01-06T01:26:37.130Z,1002.82
2019-01-06T01:27:37.109Z,1002.82
2019-01-06T01:28:37.080Z,1002.84
2019-01-06T01:29:37.067Z,1002.89
2019-01-06T01:30:37.056Z,1002.84
2019-01-06T01:31:37.074Z,1002.89
2019-01-06T01:32:37.045Z,1002.89
2019-01-06T01:33:37.120Z,1002.85
2019-01-06T01:34:37.012Z,1002.90
2019-01-06T01:35:37.027Z,1002.92
2019-01-06T01:36:37.003Z,1002.90
2019-01-06T01:37:37.007Z,1002.91
2019-01-06T01:38:36.986Z,1002.93
2019-01-06T01:39:36.960Z,1002.96
2019-01-06T01:40:36.948Z,1002.94
2019-01-06T01:41:36.929Z,1002.88
2019-01-06T01:42:36.929Z,1002.97
2019-01-06T01:43:36.932Z,1002.94
2019-01-06T01:44:36.953Z,1002.97
2019-01-06T01:45:36.897Z,1002.95
2019-01-06T01:46:36.896Z,1002.91
2019-01-06T01:47:36.921Z,1002.93
2019-01-06T01:48:36.901Z,1002.94
2019-01-06T01:49:36.870Z,1002.93
2019-01-06T01:50:36.889Z,1002.92
2019-01-06T01:51:36.888Z,1002.94
2019-01-06T01:52:36.832Z,1002.94
2019-01-06T01:53:36.851Z,1002.94
2019-01-06T01:54:36.792Z,1002.99
2019-01-06T01:55:36.909Z,1002.98
2019-01-06T01:56:36.775Z,1002.98
2019-01-06T01:57:36.818Z,1002.97
2019-01-06T01:58:36.793Z,1002.94
2019-01-06T01:59:36.778Z,1003.02
2019-01-06T02:00:36.794Z,1002.94
2019-01-06T02:01:36.744Z,1003.00
2019-01-06T02:02:36.766Z,1002.96
2019-01-06T02:03:36.734Z,1002.93
2019-01-06T02:04:36.709Z,1002.91
2019-01-06T02:05:36.693Z,1003.00
2019-01-06T02:06:36.737Z,1002.95
2019-01-06T02:07:36.676Z,1002.95
2019-01-06T02:08:36.634Z,1002.86
2019-01-06T02:09:36.654Z,1002.94
2019-01-06T02:10:36.639Z,1002.96
2019-01-06T02:11:36.668Z,1002.92
2019-01-06T02:12:36.618Z,1002.96
2019-01-06T02:13:36.592Z,1002.91
2019-01-06T02:14:36.575Z,1002.91
2019-01-06T02:15:36.582Z,1002.92
2019-01-06T02:16:36.627Z,1002.95
2019-01-06T02:17:36.636Z,1002.92
2019-01-06T02:18:36.557Z,1002.92
2019-01-06T02:19:36.544Z,1002.94
2019-01-06T02:20:36.521Z,1002.94
2019-01-06T02:21:36.576Z,1002.94
2019-01-06T02:22:36.514Z,1002.97
2019-01-06T02:23:36.501Z,1002.97
2019-01-06T02:24:36.488Z,1002.91
2019-01-06T02:25:36.470Z,1002.99
2019-01-06T02:26:37.449Z,1002.99
2019-01-06T02:27:36.458Z,1002.99
2019-01-06T02:28:36.458Z,1003.00
2019-01-06T02:29:36.440Z,1003.01
2019-01-06T02:30:36.418Z,1003.00
2019-01-06T02:31:36.471Z,1003.00
2019-01-06T02:32:36.407Z,1003.01
2019-01-06T02:33:36.365Z,1003.00
2019-01-06T02:34:36.367Z,1002.93
2019-01-06T02:35:36.362Z,1002.96
2019-01-06T02:36:36.356Z,1002.94
2019-01-06T02:37:36.335Z,1002.93
2019-01-06T02:38:36.346Z,1002.93
2019-01-06T02:39:36.309Z,1002.94
2019-01-06T02:40:36.311Z,1002.93
2019-01-06T02:41:36.299Z,1002.90
2019-01-06T02:42:36.313Z,1002.89
2019-01-06T02:43:36.279Z,1002.91
2019-01-06T02:44:36.262Z,1002.90
2019-01-06T02:45:36.241Z,1002.98
2019-01-06T02:46:36.233Z,1002.91
2019-01-06T02:47:36.228Z,1002.94
2019-01-06T02:48:36.247Z,1003.03
2019-01-06T02:49:36.202Z,1002.93
2019-01-06T02:50:36.207Z,1002.98
2019-01-06T02:51:36.190Z,1002.94
2019-01-06T02:52:36.171Z,1002.98
2019-01-06T02:53:36.245Z,1002.99
2019-01-06T02:54:36.188Z,1002.98
2019-01-06T02:55:36.142Z,1002.95
2019-01-06T02:56:36.150Z,1003.00
2019-01-06T02:57:36.116Z,1002.98
2019-01-06T02:58:36.149Z,1003.00
2019-01-06T02:59:36.096Z,1002.96
2019-01-06T03:00:36.163Z,1002.96
2019-01-06T03:01:36.074Z,1002.99
2019-01-06T03:02:36.082Z,1002.97
2019-01-06T03:03:36.054Z,1002.96
2019-01-06T03:04:36.086Z,1002.97
2019-01-06T03:05:36.071Z,1003.00
2019-01-06T03:06:36.043Z,1002.96
2019-01-06T03:07:36.005Z,1002.95
2019-01-06T03:08:36.012Z,1002.97
2019-01-06T03:09:35.982Z,1002.99
2019-01-06T03:10:35.973Z,1002.95
2019-01-06T03:11:35.967Z,1002.95
2019-01-06T03:12:35.970Z,1002.99
2019-01-06T03:13:35.964Z,1002.91
2019-01-06T03:14:35.968Z,1002.95
2019-01-06T03:15:35.939Z,1002.94
2019-01-06T03:16:35.928Z,1002.96
2019-01-06T03:17:35.929Z,1002.95
2019-01-06T03:18:35.936Z,1002.93
2019-01-06T03:19:35.946Z,1002.95
2019-01-06T03:20:35.902Z,1002.91
2019-01-06T03:21:35.860Z,1002.97
2019-01-06T03:22:35.858Z,1002.86
2019-01-06T03:23:35.868Z,1002.92
2019-01-06T03:24:35.833Z,1002.91
2019-01-06T03:25:35.817Z,1002.89
2019-01-06T03:26:35.819Z,1002.89
2019-01-06T03:27:35.800Z,1002.86
2019-01-06T03:28:35.808Z,1002.82
2019-01-06T03:29:35.790Z,1002.86
2019-01-06T03:30:35.786Z,1002.84
2019-01-06T03:31:35.770Z,1002.79
2019-01-06T03:32:35.791Z,1002.81
2019-01-06T03:33:35.743Z,1002.79
2019-01-06T03:34:35.737Z,1002.82
2019-01-06T03:35:35.726Z,1002.80
2019-01-06T03:36:35.710Z,1002.84
2019-01-06T03:37:35.726Z,1002.77
2019-01-06T03:38:35.693Z,1002.74
2019-01-06T03:39:35.683Z,1002.75
2019-01-06T03:40:35.727Z,1002.74
2019-01-06T03:41:35.685Z,1002.75
2019-01-06T03:42:35.906Z,1002.68
2019-01-06T03:43:35.625Z,1002.72
2019-01-06T03:44:35.637Z,1002.70
2019-01-06T03:45:35.645Z,1002.69
2019-01-06T03:46:35.619Z,1002.74
2019-01-06T03:47:35.607Z,1002.74
2019-01-06T03:48:35.592Z,1002.71
2019-01-06T03:49:35.574Z,1002.68
2019-01-06T03:50:35.561Z,1002.68
2019-01-06T03:51:35.543Z,1002.70
2019-01-06T03:52:35.529Z,1002.67
2019-01-06T03:53:35.528Z,1002.55
2019-01-06T03:54:35.534Z,1002.66
2019-01-06T03:55:35.514Z,1002.63
2019-01-06T03:56:35.488Z,1002.62
2019-01-06T03:57:35.479Z,1002.63
2019-01-06T03:58:35.548Z,1002.60
2019-01-06T03:59:35.471Z,1002.60
2019-01-06T04:00:35.461Z,1002.63
2019-01-06T04:01:35.447Z,1002.60
2019-01-06T04:02:35.465Z,1002.58
2019-01-06T04:03:35.498Z,1002.56
2019-01-06T04:04:35.434Z,1002.62
2019-01-06T04:05:35.422Z,1002.57
2019-01-06T04:06:35.486Z,1002.56
2019-01-06T04:07:35.379Z,1002.57
2019-01-06T04:08:35.406Z,1002.56
2019-01-06T04:09:35.373Z,1002.51
2019-01-06T04:10:35.362Z,1002.52
2019-01-06T04:11:35.331Z,1002.53
2019-01-06T04:12:35.345Z,1002.54
2019-01-06T04:13:35.349Z,1002.53
2019-01-06T04:14:35.335Z,1002.52
2019-01-06T04:15:35.304Z,1002.52
2019-01-06T04:16:35.283Z,1002.59
2019-01-06T04:17:35.544Z,1002.50
2019-01-06T04:18:35.283Z,1002.54
2019-01-06T04:19:35.248Z,1002.52
2019-01-06T04:20:35.235Z,1002.55
2019-01-06T04:21:35.229Z,1002.50
2019-01-06T04:22:35.296Z,1002.53
2019-01-06T04:23:35.221Z,1002.53
2019-01-06T04:24:35.207Z,1002.48
2019-01-06T04:25:35.198Z,1002.47
2019-01-06T04:26:35.163Z,1002.52
2019-01-06T04:27:35.153Z,1002.51
2019-01-06T04:28:35.179Z,1002.46
2019-01-06T04:29:35.143Z,1002.52
2019-01-06T04:30:35.133Z,1002.47
2019-01-06T04:31:35.115Z,1002.49
2019-01-06T04:32:35.106Z,1002.49
2019-01-06T04:33:35.147Z,1002.45
2019-01-06T04:34:35.164Z,1002.49
2019-01-06T04:35:35.075Z,1002.42
2019-01-06T04:36:35.060Z,1002.45
2019-01-06T04:37:35.054Z,1002.39
2019-01-06T04:38:35.044Z,1002.45
2019-01-06T04:39:35.036Z,1002.41
2019-01-06T04:40:35.083Z,1002.39
2019-01-06T04:41:35.023Z,1002.43
2019-01-06T04:42:35.015Z,1002.43
2019-01-06T04:43:35.007Z,1002.43
2019-01-06T04:44:35.061Z,1002.36
2019-01-06T04:45:34.968Z,1002.40
2019-01-06T04:46:34.970Z,1002.44
2019-01-06T04:47:34.943Z,1002.40
2019-01-06T04:48:34.935Z,1002.39
2019-01-06T04:49:35.267Z,1002.39
2019-01-06T04:50:36.843Z,1002.37
2019-01-06T04:51:34.902Z,1002.43
2019-01-06T04:52:34.895Z,1002.42
2019-01-06T04:53:34.902Z,1002.45
2019-01-06T04:54:34.890Z,1002.44
2019-01-06T04:55:34.884Z,1002.44
2019-01-06T04:56:34.855Z,1002.45
2019-01-06T04:57:34.911Z,1002.43
2019-01-06T04:58:34.823Z,1002.39
2019-01-06T04:59:34.817Z,1002.44
2019-01-06T05:00:34.808Z,1002.40
2019-01-06T05:01:34.825Z,1002.42
2019-01-06T05:02:34.846Z,1002.44
2019-01-06T05:03:34.774Z,1002.42
2019-01-06T05:04:34.763Z,1002.39
2019-01-06T05:05:34.765Z,1002.43
2019-01-06T05:06:34.786Z,1002.46
2019-01-06T05:07:34.773Z,1002.44
2019-01-06T05:08:34.721Z,1002.46
2019-01-06T05:09:34.705Z,1002.43
2019-01-06T05:10:34.702Z,1002.43
2019-01-06T05:11:34.703Z,1002.43
2019-01-06T05:12:34.701Z,1002.40
2019-01-06T05:13:34.711Z,1002.44
2019-01-06T05:14:34.678Z,1002.45
2019-01-06T05:15:34.676Z,1002.48
2019-01-06T05:16:34.637Z,1002.44
2019-01-06T05:17:34.678Z,1002.50
2019-01-06T05:18:34.612Z,1002.45
2019-01-06T05:19:34.615Z,1002.51
2019-01-06T05:20:34.617Z,1002.51
2019-01-06T05:21:34.611Z,1002.52
2019-01-06T05:22:34.584Z,1002.48
2019-01-06T05:23:34.572Z,1002.52
2019-01-06T05:24:34.577Z,1002.55
2019-01-06T05:25:34.539Z,1002.48
2019-01-06T05:26:34.546Z,1002.48
2019-01-06T05:27:39.980Z,1002.46
2019-01-06T05:28:34.512Z,1002.47
2019-01-06T05:29:34.501Z,1002.47
2019-01-06T05:30:34.484Z,1002.44
2019-01-06T05:31:34.486Z,1002.45
2019-01-06T05:32:34.551Z,1002.45
2019-01-06T05:33:34.467Z,1002.51
2019-01-06T05:34:34.452Z,1002.47
2019-01-06T05:35:34.501Z,1002.48
2019-01-06T05:36:34.448Z,1002.50
2019-01-06T05:37:34.427Z,1002.52
2019-01-06T05:38:34.415Z,1002.48
2019-01-06T05:39:34.597Z,1002.52
2019-01-06T05:40:34.391Z,1002.53
2019-01-06T05:41:34.369Z,1002.48
2019-01-06T05:42:34.385Z,1002.53
2019-01-06T05:43:34.348Z,1002.46
2019-01-06T05:44:34.350Z,1002.48
2019-01-06T05:45:34.325Z,1002.49
2019-01-06T05:46:34.311Z,1002.48
2019-01-06T05:47:34.349Z,1002.57
2019-01-06T05:48:34.321Z,1002.53
2019-01-06T05:49:34.281Z,1002.54
2019-01-06T05:50:34.287Z,1002.56
2019-01-06T05:51:34.259Z,1002.59
2019-01-06T05:52:34.283Z,1002.54
2019-01-06T05:53:34.247Z,1002.65
2019-01-06T05:54:34.286Z,1002.59
2019-01-06T05:55:34.215Z,1002.64
2019-01-06T05:56:34.203Z,1002.67
2019-01-06T05:57:34.470Z,1002.66
2019-01-06T05:58:34.194Z,1002.64
2019-01-06T05:59:34.186Z,1002.68
2019-01-06T06:00:34.393Z,1002.65
2019-01-06T06:01:34.169Z,1002.61
2019-01-06T06:02:34.212Z,1002.72
2019-01-06T06:03:34.159Z,1002.66
2019-01-06T06:04:34.118Z,1002.70
2019-01-06T06:05:34.133Z,1002.74
2019-01-06T06:06:34.104Z,1002.73
2019-01-06T06:07:34.143Z,1002.77
2019-01-06T06:08:34.108Z,1002.80
2019-01-06T06:09:34.069Z,1002.78
2019-01-06T06:10:34.070Z,1002.76
2019-01-06T06:11:34.089Z,1002.80
2019-01-06T06:12:34.125Z,1002.76
2019-01-06T06:13:34.125Z,1002.80
2019-01-06T06:14:34.007Z,1002.82
2019-01-06T06:15:34.090Z,1002.80
2019-01-06T06:16:34.088Z,1002.79
2019-01-06T06:17:33.992Z,1002.80
2019-01-06T06:18:34.038Z,1002.80
2019-01-06T06:19:34.030Z,1002.81
2019-01-06T06:20:33.972Z,1002.86
2019-01-06T06:21:33.967Z,1002.82
2019-01-06T06:22:33.936Z,1002.87
2019-01-06T06:23:33.970Z,1002.89
2019-01-06T06:24:33.908Z,1002.89
2019-01-06T06:25:33.891Z,1002.90
2019-01-06T06:26:33.911Z,1002.89
2019-01-06T06:27:33.895Z,1002.88
2019-01-06T06:28:33.878Z,1002.88
2019-01-06T06:29:33.872Z,1002.88
2019-01-06T06:30:33.873Z,1002.88
2019-01-06T06:31:33.829Z,1002.90
2019-01-06T06:32:33.854Z,1002.88
2019-01-06T06:33:33.818Z,1002.92
2019-01-06T06:34:33.854Z,1002.97
2019-01-06T06:35:33.791Z,1002.99
2019-01-06T06:36:33.794Z,1002.98
2019-01-06T06:37:33.814Z,1002.97
2019-01-06T06:38:34.030Z,1002.94
2019-01-06T06:39:33.752Z,1002.96
2019-01-06T06:40:33.785Z,1002.95
2019-01-06T06:41:33.747Z,1002.94
2019-01-06T06:42:33.711Z,1002.97
2019-01-06T06:43:33.807Z,1003.01
2019-01-06T06:44:33.751Z,1002.97
2019-01-06T06:45:33.706Z,1002.99
2019-01-06T06:46:33.674Z,1003.01
2019-01-06T06:47:33.684Z,1003.00
2019-01-06T06:48:33.672Z,1002.97
2019-01-06T06:49:33.667Z,1003.02
2019-01-06T06:50:33.632Z,1003.04
2019-01-06T06:51:33.616Z,1003.02
2019-01-06T06:52:33.602Z,1003.03
2019-01-06T06:53:33.885Z,1003.02
2019-01-06T06:54:33.587Z,1003.05
2019-01-06T06:55:33.573Z,1003.04
2019-01-06T06:56:33.608Z,1003.08
2019-01-06T06:57:33.552Z,1003.07
2019-01-06T06:58:33.539Z,1003.03
2019-01-06T06:59:33.542Z,1003.06
2019-01-06T07:00:33.520Z,1003.14
2019-01-06T07:01:33.606Z,1003.12
2019-01-06T07:02:33.530Z,1003.18
2019-01-06T07:03:33.529Z,1003.14
2019-01-06T07:04:33.501Z,1003.14
2019-01-06T07:05:33.524Z,1003.14
2019-01-06T07:06:33.472Z,1003.14
2019-01-06T07:07:33.478Z,1003.17
2019-01-06T07:08:33.451Z,1003.14
2019-01-06T07:09:33.448Z,1003.20
2019-01-06T07:10:33.449Z,1003.15
2019-01-06T07:11:33.410Z,1003.20
2019-01-06T07:12:33.388Z,1003.21
2019-01-06T07:13:33.381Z,1003.22
2019-01-06T07:14:33.382Z,1003.31
2019-01-06T07:15:33.357Z,1003.24
2019-01-06T07:16:33.350Z,1003.26
2019-01-06T07:17:33.352Z,1003.27
2019-01-06T07:18:33.335Z,1003.28
2019-01-06T07:19:33.329Z,1003.33
2019-01-06T07:20:33.302Z,1003.30
2019-01-06T07:21:33.298Z,1003.31
2019-01-06T07:22:33.292Z,1003.32
2019-01-06T07:23:33.291Z,1003.33
2019-01-06T07:24:33.275Z,1003.33
2019-01-06T07:25:33.332Z,1003.36
2019-01-06T07:26:33.491Z,1003.41
2019-01-06T07:27:33.234Z,1003.36
2019-01-06T07:28:33.216Z,1003.40
2019-01-06T07:29:33.231Z,1003.40
2019-01-06T07:30:33.261Z,1003.42
2019-01-06T07:31:33.200Z,1003.37
2019-01-06T07:32:33.191Z,1003.42
2019-01-06T07:33:33.162Z,1003.46
2019-01-06T07:34:33.167Z,1003.38
2019-01-06T07:35:33.146Z,1003.51
2019-01-06T07:36:33.144Z,1003.41
2019-01-06T07:37:33.124Z,1003.51
2019-01-06T07:38:33.141Z,1003.47
2019-01-06T07:39:33.137Z,1003.47
2019-01-06T07:40:33.098Z,1003.47
2019-01-06T07:41:33.093Z,1003.51
2019-01-06T07:42:33.071Z,1003.50
2019-01-06T07:43:33.052Z,1003.51
2019-01-06T07:44:33.122Z,1003.50
2019-01-06T07:45:33.060Z,1003.57
2019-01-06T07:46:33.073Z,1003.52
2019-01-06T07:47:33.099Z,1003.54
2019-01-06T07:48:33.004Z,1003.52
2019-01-06T07:49:33.074Z,1003.59
2019-01-06T07:50:33.010Z,1003.64
2019-01-06T07:51:33.003Z,1003.65
2019-01-06T07:52:32.989Z,1003.61
2019-01-06T07:53:32.959Z,1003.62
2019-01-06T07:54:33.247Z,1003.61
2019-01-06T07:55:32.941Z,1003.67
2019-01-06T07:56:32.919Z,1003.68
2019-01-06T07:57:32.905Z,1003.69
2019-01-06T07:58:32.902Z,1003.66
2019-01-06T07:59:32.884Z,1003.67
2019-01-06T08:00:32.934Z,1003.70
2019-01-06T08:01:32.867Z,1003.68
2019-01-06T08:02:32.859Z,1003.73
2019-01-06T08:03:32.842Z,1003.72
2019-01-06T08:04:32.831Z,1003.74
2019-01-06T08:05:32.855Z,1003.75
2019-01-06T08:06:32.852Z,1003.79
2019-01-06T08:07:32.798Z,1003.79
2019-01-06T08:08:32.828Z,1003.77
2019-01-06T08:09:32.778Z,1003.80
2019-01-06T08:10:32.787Z,1003.77
2019-01-06T08:11:32.753Z,1003.78
2019-01-06T08:12:32.744Z,1003.82
2019-01-06T08:13:32.756Z,1003.82
2019-01-06T08:14:32.730Z,1003.84
2019-01-06T08:15:32.724Z,1003.83
2019-01-06T08:16:32.700Z,1003.84
2019-01-06T08:17:32.714Z,1003.86
2019-01-06T08:18:32.691Z,1003.86
2019-01-06T08:19:32.671Z,1003.85
2019-01-06T08:20:32.954Z,1003.86
2019-01-06T08:21:32.672Z,1003.83
2019-01-06T08:22:32.667Z,1003.86
2019-01-06T08:23:32.628Z,1003.93
2019-01-06T08:24:32.614Z,1003.89
2019-01-06T08:25:32.650Z,1003.91
2019-01-06T08:26:32.601Z,1003.87
2019-01-06T08:27:32.595Z,1003.92
2019-01-06T08:28:32.589Z,1003.93
2019-01-06T08:29:32.775Z,1003.92
2019-01-06T08:30:32.594Z,1003.94
2019-01-06T08:31:32.541Z,1003.97
2019-01-06T08:32:32.531Z,1003.93
2019-01-06T08:33:32.546Z,1003.98
2019-01-06T08:34:32.514Z,1003.99
2019-01-06T08:35:32.532Z,1003.95
2019-01-06T08:36:32.506Z,1003.99
2019-01-06T08:37:32.519Z,1003.94
2019-01-06T08:38:32.478Z,1003.99
2019-01-06T08:39:32.481Z,1003.98
2019-01-06T08:40:32.460Z,1003.96
2019-01-06T08:41:32.518Z,1003.99
2019-01-06T08:42:32.427Z,1004.00
2019-01-06T08:43:32.459Z,1003.96
2019-01-06T08:44:32.421Z,1003.99
2019-01-06T08:45:34.292Z,1004.03
2019-01-06T08:46:32.427Z,1004.07
2019-01-06T08:47:32.446Z,1004.03
2019-01-06T08:48:32.368Z,1004.04
2019-01-06T08:49:32.378Z,1004.05
2019-01-06T08:50:32.527Z,1004.10
2019-01-06T08:51:32.340Z,1004.10
2019-01-06T08:52:32.314Z,1004.08
2019-01-06T08:53:32.312Z,1004.09
2019-01-06T08:54:32.298Z,1004.09
2019-01-06T08:55:32.319Z,1004.10
2019-01-06T08:56:32.530Z,1004.09
2019-01-06T08:57:32.282Z,1004.11
2019-01-06T08:58:32.336Z,1004.09
2019-01-06T08:59:32.298Z,1004.14
2019-01-06T09:00:32.258Z,1004.13
2019-01-06T09:01:32.227Z,1004.12
2019-01-06T09:02:32.241Z,1004.12
2019-01-06T09:03:32.208Z,1004.15
2019-01-06T09:04:32.196Z,1004.14
2019-01-06T09:05:32.481Z,1004.11
2019-01-06T09:06:32.168Z,1004.16
2019-01-06T09:07:32.190Z,1004.13
2019-01-06T09:08:32.168Z,1004.13
2019-01-06T09:09:32.158Z,1004.09
2019-01-06T09:10:32.140Z,1004.13
2019-01-06T09:11:32.360Z,1004.12
2019-01-06T09:12:32.106Z,1004.11
2019-01-06T09:13:32.267Z,1004.09
2019-01-06T09:14:32.090Z,1004.12
2019-01-06T09:15:32.078Z,1004.12
2019-01-06T09:16:32.100Z,1004.13
2019-01-06T09:17:32.056Z,1004.13
2019-01-06T09:18:32.044Z,1004.15
2019-01-06T09:19:32.030Z,1004.19
2019-01-06T09:20:32.059Z,1004.16
2019-01-06T09:21:32.034Z,1004.19
2019-01-06T09:22:31.999Z,1004.16
2019-01-06T09:23:31.998Z,1004.17
2019-01-06T09:24:31.976Z,1004.21
2019-01-06T09:25:32.004Z,1004.23
2019-01-06T09:26:32.002Z,1004.20
2019-01-06T09:27:31.966Z,1004.17
2019-01-06T09:28:31.940Z,1004.19
2019-01-06T09:29:32.515Z,1004.15
2019-01-06T09:30:31.910Z,1004.18
2019-01-06T09:31:31.925Z,1004.18
2019-01-06T09:32:31.922Z,1004.17
2019-01-06T09:33:31.894Z,1004.22
2019-01-06T09:34:31.876Z,1004.20
2019-01-06T09:35:31.870Z,1004.23
2019-01-06T09:36:31.868Z,1004.20
2019-01-06T09:37:31.841Z,1004.25
2019-01-06T09:38:31.850Z,1004.33
2019-01-06T09:39:31.820Z,1004.23
2019-01-06T09:40:31.887Z,1004.25
2019-01-06T09:41:31.816Z,1004.28
2019-01-06T09:42:31.798Z,1004.27
2019-01-06T09:43:31.775Z,1004.28
2019-01-06T09:44:31.788Z,1004.26
2019-01-06T09:45:31.766Z,1004.27
2019-01-06T09:46:31.808Z,1004.30
2019-01-06T09:47:31.735Z,1004.27
2019-01-06T09:48:31.731Z,1004.28
2019-01-06T09:49:31.785Z,1004.25
2019-01-06T09:50:31.709Z,1004.26
2019-01-06T09:51:31.709Z,1004.31
2019-01-06T09:52:31.700Z,1004.28
2019-01-06T09:53:31.729Z,1004.36
2019-01-06T09:54:31.708Z,1004.34
2019-01-06T09:55:31.670Z,1004.33
2019-01-06T09:56:31.670Z,1004.32
2019-01-06T09:57:31.686Z,1004.35
2019-01-06T09:58:31.613Z,1004.33
2019-01-06T09:59:31.643Z,1004.37
2019-01-06T10:00:31.628Z,1004.38
2019-01-06T10:01:31.585Z,1004.40
2019-01-06T10:02:31.577Z,1004.35
2019-01-06T10:03:31.561Z,1004.35
2019-01-06T10:04:35.168Z,1004.41
2019-01-06T10:05:31.562Z,1004.34
2019-01-06T10:06:31.537Z,1004.36
2019-01-06T10:07:31.530Z,1004.36
2019-01-06T10:08:31.519Z,1004.37
2019-01-06T10:09:31.534Z,1004.36
2019-01-06T10:10:31.499Z,1004.41
2019-01-06T10:11:31.511Z,1004.38
2019-01-06T10:12:31.501Z,1004.41
2019-01-06T10:13:31.516Z,1004.38
2019-01-06T10:14:31.480Z,1004.39
2019-01-06T10:15:31.429Z,1004.40
2019-01-06T10:16:31.432Z,1004.39
2019-01-06T10:17:31.466Z,1004.39
2019-01-06T10:18:31.435Z,1004.38
2019-01-06T10:19:31.396Z,1004.38
2019-01-06T10:20:31.383Z,1004.35
2019-01-06T10:21:31.370Z,1004.37
2019-01-06T10:22:31.646Z,1004.35
2019-01-06T10:23:31.345Z,1004.39
2019-01-06T10:24:31.403Z,1004.37
2019-01-06T10:25:31.355Z,1004.37
2019-01-06T10:26:31.354Z,1004.39
2019-01-06T10:27:31.318Z,1004.40
2019-01-06T10:28:31.312Z,1004.40
2019-01-06T10:29:31.285Z,1004.42
2019-01-06T10:30:31.307Z,1004.45
2019-01-06T10:31:31.257Z,1004.43
2019-01-06T10:32:31.284Z,1004.42
2019-01-06T10:33:31.261Z,1004.43
2019-01-06T10:34:31.229Z,1004.44
2019-01-06T10:35:31.261Z,1004.46
2019-01-06T10:36:31.256Z,1004.45
2019-01-06T10:37:31.196Z,1004.44
2019-01-06T10:38:31.221Z,1004.45
2019-01-06T10:39:31.172Z,1004.44
2019-01-06T10:40:31.213Z,1004.43
2019-01-06T10:41:31.187Z,1004.43
2019-01-06T10:42:31.137Z,1004.46
2019-01-06T10:43:31.249Z,1004.48
2019-01-06T10:44:31.121Z,1004.46
2019-01-06T10:45:31.132Z,1004.50
2019-01-06T10:46:31.109Z,1004.47
2019-01-06T10:47:31.112Z,1004.47
2019-01-06T10:48:31.142Z,1004.46
2019-01-06T10:49:31.067Z,1004.52
2019-01-06T10:50:31.053Z,1004.49
2019-01-06T10:51:31.066Z,1004.50
2019-01-06T10:52:31.030Z,1004.55
2019-01-06T10:53:31.150Z,1004.51
2019-01-06T10:54:31.009Z,1004.47
2019-01-06T10:55:31.056Z,1004.54
2019-01-06T10:56:31.024Z,1004.51
2019-01-06T10:57:30.992Z,1004.53
2019-01-06T10:58:31.038Z,1004.50
2019-01-06T10:59:30.953Z,1004.51
2019-01-06T11:00:30.946Z,1004.53
2019-01-06T11:01:30.939Z,1004.52
2019-01-06T11:02:30.933Z,1004.51
2019-01-06T11:03:30.977Z,1004.51
2019-01-06T11:04:30.920Z,1004.56
2019-01-06T11:05:30.890Z,1004.54
2019-01-06T11:06:32.412Z,1004.54
2019-01-06T11:07:30.899Z,1004.58
2019-01-06T11:08:30.901Z,1004.62
2019-01-06T11:09:30.867Z,1004.58
2019-01-06T11:10:30.838Z,1004.56
2019-01-06T11:11:30.878Z,1004.61
2019-01-06T11:12:30.829Z,1004.58
2019-01-06T11:13:30.936Z,1004.62
2019-01-06T11:14:30.895Z,1004.61
2019-01-06T11:15:30.793Z,1004.59
2019-01-06T11:16:30.821Z,1004.56
2019-01-06T11:17:30.767Z,1004.55
2019-01-06T11:18:30.801Z,1004.57
2019-01-06T11:19:30.738Z,1004.57
2019-01-06T11:20:30.732Z,1004.55
2019-01-06T11:21:30.744Z,1004.52
2019-01-06T11:22:30.711Z,1004.53
2019-01-06T11:23:30.740Z,1004.53
2019-01-06T11:24:30.707Z,1004.52
2019-01-06T11:25:30.678Z,1004.51
2019-01-06T11:26:30.702Z,1004.49
2019-01-06T11:27:30.656Z,1004.51
2019-01-06T11:28:30.696Z,1004.52
2019-01-06T11:29:30.657Z,1004.50
2019-01-06T11:30:30.644Z,1004.50
2019-01-06T11:31:30.628Z,1004.50
2019-01-06T11:32:30.639Z,1004.49
2019-01-06T11:33:30.908Z,1004.51
2019-01-06T11:34:30.587Z,1004.49
2019-01-06T11:35:30.595Z,1004.53
2019-01-06T11:36:30.566Z,1004.53
2019-01-06T11:37:30.621Z,1004.53
2019-01-06T11:38:30.568Z,1004.52
2019-01-06T11:39:30.588Z,1004.52
2019-01-06T11:40:30.514Z,1004.50
2019-01-06T11:41:30.504Z,1004.53
2019-01-06T11:42:30.545Z,1004.54
2019-01-06T11:43:30.530Z,1004.56
2019-01-06T11:44:30.521Z,1004.54
2019-01-06T11:45:30.467Z,1004.55
2019-01-06T11:46:30.498Z,1004.55
2019-01-06T11:47:30.625Z,1004.53
2019-01-06T11:48:30.459Z,1004.54
2019-01-06T11:49:30.478Z,1004.55
2019-01-06T11:50:30.417Z,1004.48
2019-01-06T11:51:30.461Z,1004.50
2019-01-06T11:52:30.422Z,1004.50
2019-01-06T11:53:30.374Z,1004.49
2019-01-06T11:54:30.420Z,1004.50
2019-01-06T11:55:30.425Z,1004.44
2019-01-06T11:56:30.377Z,1004.45
2019-01-06T11:57:30.342Z,1004.48
2019-01-06T11:58:30.640Z,1004.48
2019-01-06T11:59:30.312Z,1004.45
2019-01-06T12:00:30.326Z,1004.49
2019-01-06T12:01:30.293Z,1004.46
2019-01-06T12:02:30.274Z,1004.51
2019-01-06T12:03:30.306Z,1004.45
2019-01-06T12:04:30.310Z,1004.49
2019-01-06T12:05:30.339Z,1004.50